Maryland METAR Reports


Distance/Direction noted is from Ellicott City, MD as the crow flies

KCBE - Cumberland - 118 miles WNW
Updated: Wed, 08/27/2014 2:33 PM
Partly Cloudy
Partly Cloudy
 Wind from calm
Wind: Calm
Temperature: 95°F
Dew Point: 64°F
Humidity: 36%
Barometer: 30.04 inHg
Clouds: Partly Cloudy
Visibility: 10 miles
Cloud Details: Partly Cloudy 4800 ft
2014/08/27 18:33 KCBE 271833Z AUTO 00000KT 10SM SCT048 35/18 A3004 RMK AO1
KHGR - Hagerstown - 57 miles NW
Updated: Wed, 08/27/2014 1:53 PM
Few Clouds
Few Clouds
 Wind from SSW
Wind: SSW 7 mph
Temperature: 82°F
Heat Index: 84°F
Dew Point: 64°F
Humidity: 55%
Barometer: 30.03 inHg
Clouds: Few Clouds
Visibility: 10 miles
Cloud Details: Few Clouds 6000 ft
2014/08/27 17:53 KHGR 271753Z 21006KT 10SM FEW060 28/18 A3003 RMK AO2 SLP173 T02780178 10278 20172 58020
 
KFDK - Frederick - 34 miles NW
Updated: Wed, 08/27/2014 2:45 PM
Clear
Clear
 Wind from calm
Wind: Calm
Temperature: 90°F
Heat Index: 99°F
Dew Point: 73°F
Humidity: 59%
Barometer: 30.02 inHg
Clouds: Clear
Visibility: 10 miles
2014/08/27 18:45 KFDK 271845Z 00000KT 10SM SKC 32/23 A3002
KGAI - Gaithersburg - 26 miles SW
Updated: Wed, 08/27/2014 2:35 PM
Clear
Clear
 Wind from W
Wind: W 7 mph
Temperature: 86°F
Heat Index: 88°F
Dew Point: 64°F
Humidity: 49%
Barometer: 30.03 inHg
Clouds: Clear
Visibility: 10 miles
2014/08/27 18:35 KGAI 271835Z AUTO 28006KT 10SM CLR 30/18 A3003 RMK AO1
 
KBWI - BWI Airport - 15 miles SE
Updated: Wed, 08/27/2014 1:54 PM
Few Clouds
Few Clouds
 Wind from calm
Wind: Calm
Temperature: 88°F
Heat Index: 88°F
Dew Point: 61°F
Humidity: 40%
Barometer: 29.99 inHg
Clouds: Few Clouds
Visibility: 10 miles
Cloud Details: Few Clouds 25000 ft
2014/08/27 17:54 KBWI 271754Z 00000KT 10SM FEW250 31/16 A2999 RMK AO2 SLP155 T03060161 10306 20194 58025
KNAK - Annapolis - 32 miles SSE
Updated: Wed, 08/27/2014 2:54 PM
Clear
Clear
 Wind from ESE
Wind: ESE 8 mph
Temperature: 81°F
Heat Index: 83°F
Dew Point: 66°F
Humidity: 62%
Barometer: 29.97 inHg
Clouds: Clear
Visibility: 10 miles
2014/08/27 18:54 KNAK 271854Z AUTO 11007KT 10SM CLR 27/19 A2997 RMK AO2 SLP151 T02720194 $
 
KESN - Easton - 63 miles SE
Updated: Wed, 08/27/2014 2:50 PM
Clear
Clear
 Wind from WNW
Wind: WNW 6 mph
Temperature: 90°F
Heat Index: 91°F
Dew Point: 63°F
Humidity: 41%
Barometer: 30.01 inHg
Clouds: Clear
Visibility: 10 miles
2014/08/27 18:50 KESN 271850Z 30005KT 10SM SKC 32/17 A3001
KSBY - Salisbury - 112 miles SE
Updated: Wed, 08/27/2014 2:54 PM
Clear
Clear
 Wind from calm
Wind: Calm
Temperature: 88°F
Dew Point: 59°F
Humidity: 38%
Barometer: 29.96 inHg
Clouds: Clear
Visibility: 10 miles
2014/08/27 18:54 KSBY 271854Z 00000KT 10SM CLR 31/15 A2996 RMK AO2 SLP148 T03110150